Impacts TAF Board INFO
FOR SITUATIONAL AWARENESS. NOT TO BE USED FOR FLIGHT PLANNING PURPOSES.
IDs:

KPIT - Pittsburgh Intl, PA, US

Issued at 1120 UTC 21 May 2018
Updated at 1313 UTC 21 May 2018
Potential Impact None Slight Moderate High
Time<<22/14Z 22/15Z 22/16Z 22/17Z 22/18Z 22/19Z 22/20Z 22/21Z 22/22Z 22/23Z 23/00Z 23/01Z 23/02Z
Type PRVL PRVL PRVL PRVL
VIS 6 6 6 6
CIG 25 25 25 25
Cover OVC OVC OVC OVC
FltCat MVFR MVFR MVFR MVFR
WX -SHRA -SHRA -SHRA -SHRA VCTS
WDir 200 200 200 230
WSpd 5 5 5 8
WGst -- -- -- --

Raw TAF
KPIT 211120Z 2112/2218 01005KT P6SM BKN100
  FM211800 11005KT P6SM BKN150
  FM220000 VRB03KT P6SM VCSH OVC050
  FM220500 13005KT 6SM -SHRA OVC035
  FM221300 20005KT 6SM -SHRA OVC025
  FM221700 23008KT 6SM -SHRA VCTS OVC025CB


METAR Board
Radar Display
Forecast Discussion

FOR SITUATIONAL AWARENESS. NOT TO BE USED FOR FLIGHT PLANNING PURPOSES.